Time;durP1;ratioP1;P1;durP2;ratioP2;P2;SDS_P1;SDS_P2;PMS_P1;PMS_P2;Temp;Humidity;BMP_temperature;BMP_pressure;BME280_temperature;BME280_humidity;BME280_pressure;Samples;Min_cycle;Max_cycle;Signal;HPM_P1;HPM_P2
2022/02/11 00:07:55;;;;;;;7.73;6.37;;;;;;;2.73;100.00;97404.53;4984831;28;20699;-51
2022/02/11 00:10:24;;;;;;;6.67;6.07;;;;;;;2.70;100.00;97398.72;5000579;28;20207;-47
2022/02/11 00:12:53;;;;;;;5.43;4.93;;;;;;;2.66;100.00;97399.94;5008802;28;20227;-55
2022/02/11 00:18:09;;;;;;;4.57;4.27;;;;;;;2.80;100.00;97399.59;5019150;28;20295;-48
2022/02/11 00:20:38;;;;;;;5.43;4.13;;;;;;;2.80;100.00;97394.38;4985874;28;20643;-52
2022/02/11 00:23:08;;;;;;;4.67;4.30;;;;;;;2.72;100.00;97392.41;5020379;28;20216;-47
2022/02/11 00:25:38;;;;;;;4.10;3.80;;;;;;;2.65;100.00;97388.66;4985166;28;20212;-46
2022/02/11 00:33:57;;;;;;;5.07;4.30;;;;;;;2.89;100.00;97367.44;5003439;28;20767;-48
2022/02/11 00:36:29;;;;;;;4.83;4.43;;;;;;;2.86;100.00;97369.47;5007973;28;21843;-51
2022/02/11 00:39:22;;;;;;;4.90;4.50;;;;;;;2.77;100.00;97373.69;4988538;28;20215;-48
2022/02/11 01:04:13;;;;;;;4.83;4.20;;;;;;;2.98;100.00;97351.91;4988695;28;20213;-49
2022/02/11 01:06:41;;;;;;;5.57;4.53;;;;;;;2.87;100.00;97348.41;4988769;28;20239;-48
2022/02/11 01:09:13;;;;;;;4.40;4.03;;;;;;;2.83;100.00;97341.75;4993294;28;20518;-52
2022/02/11 01:11:48;;;;;;;5.63;3.97;;;;;;;2.79;100.00;97340.38;4979570;28;20496;-47
2022/02/11 01:14:16;;;;;;;4.17;3.87;;;;;;;2.55;100.00;97341.50;4999561;28;20223;-49
2022/02/11 01:16:49;;;;;;;4.43;4.10;;;;;;;2.35;100.00;97342.34;4971670;28;20212;-48
2022/02/11 01:19:24;;;;;;;6.37;4.13;;;;;;;2.21;100.00;97341.72;4993000;28;20923;-46
2022/02/11 01:22:01;;;;;;;4.40;4.10;;;;;;;2.04;100.00;97340.50;4986146;28;20262;-51
2022/02/11 01:24:51;;;;;;;4.67;4.27;;;;;;;1.94;100.00;97335.19;4994847;28;20230;-49
2022/02/11 01:27:28;;;;;;;3.87;3.57;;;;;;;1.89;100.00;97326.91;4978011;28;20223;-48
2022/02/11 01:30:19;;;;;;;4.40;4.00;;;;;;;2.05;100.00;97320.41;5002591;28;20204;-49
2022/02/11 01:33:08;;;;;;;5.10;4.57;;;;;;;2.04;100.00;97324.81;4982554;28;20229;-47
2022/02/11 01:35:48;;;;;;;4.53;4.23;;;;;;;2.35;100.00;97327.50;5009954;28;20220;-49
2022/02/11 01:38:26;;;;;;;4.37;3.97;;;;;;;2.27;100.00;97332.50;5017459;28;20349;-51
2022/02/11 01:44:07;;;;;;;4.60;3.97;;;;;;;2.26;100.00;97308.16;5015607;28;20314;-50
2022/02/11 01:46:59;;;;;;;4.43;4.07;;;;;;;2.25;100.00;97301.28;5018534;28;20295;-48
2022/02/11 01:52:26;;;;;;;5.57;4.60;;;;;;;2.29;100.00;97294.84;5003982;28;20632;-48
2022/02/11 01:55:07;;;;;;;5.27;4.73;;;;;;;2.44;100.00;97289.25;5010331;28;20323;-49
2022/02/11 01:58:07;;;;;;;5.07;4.67;;;;;;;2.44;100.00;97277.03;4986153;28;20215;-47
2022/02/11 02:11:50;;;;;;;4.90;4.50;;;;;;;2.50;100.00;97256.53;5006230;28;20228;-50
2022/02/11 02:14:45;;;;;;;4.37;4.07;;;;;;;2.51;100.00;97243.34;4968507;28;20223;-47
2022/02/11 02:23:08;;;;;;;5.13;4.73;;;;;;;2.83;100.00;97249.34;4962452;28;20235;-50
2022/02/11 02:25:44;;;;;;;5.50;4.90;;;;;;;3.00;100.00;97251.31;4983945;28;20869;-50
2022/02/11 02:29:05;;;;;;;5.67;4.93;;;;;;;3.04;100.00;97252.72;4935544;28;20319;-47
2022/02/11 02:32:16;;;;;;;4.40;4.10;;;;;;;3.06;100.00;97238.69;4975622;28;20225;-47
2022/02/11 02:57:25;;;;;;;5.20;4.70;;;;;;;2.58;100.00;97246.22;4881644;29;20799;-48
2022/02/11 03:00:15;;;;;;;5.50;4.70;;;;;;;2.63;100.00;97251.91;4851353;29;20228;-49
2022/02/11 03:50:06;;;;;;;5.80;5.30;;;;;;;3.08;100.00;97227.09;5033014;28;20283;-48
2022/02/11 03:56:03;;;;;;;5.40;4.90;;;;;;;3.11;100.00;97213.72;5016843;28;20207;-47
2022/02/11 04:21:07;;;;;;;6.80;4.80;;;;;;;3.38;100.00;97219.25;5026347;28;20318;-49
2022/02/11 04:56:58;;;;;;;4.40;4.00;;;;;;;3.74;100.00;97235.25;4914452;28;20862;-47
2022/02/11 04:59:39;;;;;;;4.87;4.50;;;;;;;3.82;100.00;97230.16;4911979;28;20234;-45
2022/02/11 05:02:07;;;;;;;4.53;3.43;;;;;;;3.87;100.00;97248.06;4967044;28;20276;-50
2022/02/11 05:04:35;;;;;;;4.57;4.17;;;;;;;3.93;100.00;97247.50;4934086;28;20206;-46
2022/02/11 05:07:04;;;;;;;4.57;4.27;;;;;;;3.97;100.00;97238.38;4967871;28;20213;-49
2022/02/11 05:09:34;;;;;;;3.80;3.50;;;;;;;4.00;100.00;97242.53;4952938;28;20682;-46
2022/02/11 05:12:03;;;;;;;4.90;4.60;;;;;;;3.96;100.00;97247.22;4997443;28;20569;-48
2022/02/11 05:14:31;;;;;;;3.73;3.53;;;;;;;3.99;100.00;97241.72;5024741;28;20796;-47
2022/02/11 05:16:59;;;;;;;3.87;3.57;;;;;;;3.98;100.00;97244.47;5003965;28;20205;-49
2022/02/11 05:19:27;;;;;;;4.40;4.00;;;;;;;3.95;100.00;97247.38;5001540;28;20367;-50
2022/02/11 05:21:55;;;;;;;4.87;4.47;;;;;;;3.86;100.00;97241.16;5016418;28;20233;-50
2022/02/11 05:24:23;;;;;;;4.07;3.77;;;;;;;3.91;100.00;97247.66;5013283;28;20200;-49
2022/02/11 05:26:52;;;;;;;5.13;4.27;;;;;;;3.74;100.00;97248.34;5004216;28;20204;-51
2022/02/11 05:29:20;;;;;;;4.30;3.93;;;;;;;3.91;100.00;97250.28;5025016;28;20203;-48
2022/02/11 05:31:49;;;;;;;6.30;4.40;;;;;;;3.74;100.00;97256.19;5029218;28;20731;-49
2022/02/11 05:34:17;;;;;;;6.33;4.40;;;;;;;3.86;100.00;97265.59;5006190;28;20208;-49
2022/02/11 05:36:45;;;;;;;6.43;4.00;;;;;;;3.79;100.00;97261.88;5012521;28;20203;-53
2022/02/11 05:39:14;;;;;;;4.47;4.17;;;;;;;3.75;100.00;97274.44;5024352;28;20362;-51
2022/02/11 05:41:42;;;;;;;7.90;4.73;;;;;;;3.56;100.00;97279.66;5011196;28;20239;-49
2022/02/11 05:44:11;;;;;;;5.63;4.30;;;;;;;3.56;100.00;97269.16;4998420;28;20203;-50
2022/02/11 05:46:39;;;;;;;4.43;4.13;;;;;;;3.40;100.00;97265.31;5026489;28;20199;-51
2022/02/11 05:49:07;;;;;;;6.33;4.47;;;;;;;3.43;100.00;97280.75;5029782;28;20919;-51
2022/02/11 05:51:35;;;;;;;5.10;4.33;;;;;;;3.31;100.00;97277.41;4978479;28;20553;-49
2022/02/11 05:54:03;;;;;;;4.50;4.07;;;;;;;3.36;100.00;97290.13;5028685;28;20201;-49
2022/02/11 05:56:31;;;;;;;4.87;4.50;;;;;;;3.29;100.00;97291.63;5014543;28;20663;-50
2022/02/11 05:58:59;;;;;;;4.97;4.53;;;;;;;3.24;100.00;97293.84;5000021;28;20251;-50
2022/02/11 06:01:28;;;;;;;4.73;4.33;;;;;;;3.24;100.00;97299.06;5025245;28;20530;-47
2022/02/11 06:03:56;;;;;;;6.10;4.70;;;;;;;3.26;100.00;97300.56;5029540;28;20672;-47
2022/02/11 06:06:24;;;;;;;5.07;4.53;;;;;;;3.29;100.00;97307.34;4975123;28;20208;-48
2022/02/11 06:08:52;;;;;;;5.10;4.70;;;;;;;3.31;100.00;97305.41;5027953;28;20207;-51
2022/02/11 06:11:20;;;;;;;5.17;4.67;;;;;;;3.32;100.00;97320.16;5026053;28;20762;-51
2022/02/11 06:13:48;;;;;;;4.67;4.33;;;;;;;3.22;100.00;97328.00;4964992;28;20402;-51
2022/02/11 06:16:16;;;;;;;5.37;4.87;;;;;;;3.25;100.00;97332.97;5026677;28;20204;-53
2022/02/11 06:18:45;;;;;;;4.30;4.00;;;;;;;3.15;100.00;97338.16;5024023;28;20214;-48
2022/02/11 06:21:13;;;;;;;5.47;4.97;;;;;;;3.12;100.00;97340.25;4980579;28;20246;-50
2022/02/11 06:23:41;;;;;;;5.30;4.87;;;;;;;2.99;100.00;97345.69;5008903;28;20671;-52
2022/02/11 06:26:09;;;;;;;5.27;4.87;;;;;;;3.02;100.00;97350.66;5024844;28;20225;-50
2022/02/11 06:28:37;;;;;;;4.53;4.23;;;;;;;2.94;100.00;97363.59;5004753;28;20694;-48
2022/02/11 06:31:06;;;;;;;5.13;4.63;;;;;;;3.04;100.00;97372.31;5014516;28;20346;-49
2022/02/11 06:33:34;;;;;;;5.70;5.20;;;;;;;3.11;100.00;97378.66;5028313;28;20580;-49
2022/02/11 06:36:03;;;;;;;4.77;4.37;;;;;;;3.06;100.00;97385.28;4995897;28;20928;-51
2022/02/11 06:38:31;;;;;;;4.60;4.20;;;;;;;2.92;100.00;97386.47;5010079;28;20235;-51
2022/02/11 06:40:59;;;;;;;4.60;3.90;;;;;;;2.81;100.00;97393.41;5027327;28;20223;-49
2022/02/11 06:43:27;;;;;;;4.20;3.90;;;;;;;2.78;100.00;97403.31;5012967;28;20204;-51
2022/02/11 06:45:55;;;;;;;4.30;3.90;;;;;;;2.62;100.00;97407.22;4976153;28;20231;-54
2022/02/11 06:48:23;;;;;;;4.20;3.90;;;;;;;2.56;100.00;97420.81;5028761;28;20292;-50
2022/02/11 06:50:52;;;;;;;3.80;3.50;;;;;;;2.57;100.00;97428.53;5007602;28;20203;-47
2022/02/11 06:53:21;;;;;;;3.27;3.07;;;;;;;2.51;100.00;97436.06;4982274;28;20232;-52
2022/02/11 06:55:49;;;;;;;3.47;3.27;;;;;;;2.41;100.00;97449.06;5023523;28;20905;-50
2022/02/11 06:58:20;;;;;;;2.60;2.43;;;;;;;2.33;100.00;97459.31;5027322;28;20436;-51
2022/02/11 07:00:51;;;;;;;3.17;2.97;;;;;;;2.08;100.00;97441.22;4999273;28;20276;-50
2022/02/11 07:03:19;;;;;;;2.17;2.07;;;;;;;2.15;100.00;97465.09;5024369;28;20322;-47
2022/02/11 07:05:47;;;;;;;2.33;2.20;;;;;;;2.14;100.00;97463.44;5011681;28;20215;-51
2022/02/11 07:08:15;;;;;;;2.07;1.97;;;;;;;2.14;100.00;97476.50;4993203;28;20212;-47
2022/02/11 07:10:49;;;;;;;2.10;1.90;;;;;;;2.11;100.00;97488.03;5010231;28;20208;-52
2022/02/11 07:13:18;;;;;;;1.70;1.60;;;;;;;2.11;100.00;97489.81;5011439;28;20400;-54
2022/02/11 07:15:47;;;;;;;1.30;1.30;;;;;;;2.04;100.00;97502.53;4998957;28;20211;-50
2022/02/11 07:18:15;;;;;;;1.70;1.60;;;;;;;1.91;100.00;97515.75;5028473;28;20218;-49
2022/02/11 07:20:43;;;;;;;1.43;1.37;;;;;;;1.83;100.00;97512.91;5006990;28;20649;-48
2022/02/11 07:23:12;;;;;;;1.30;1.30;;;;;;;1.78;100.00;97528.13;4987729;28;20235;-51
2022/02/11 07:25:42;;;;;;;1.13;1.13;;;;;;;1.62;100.00;97531.09;5009583;28;20218;-48
2022/02/11 07:28:12;;;;;;;1.73;1.63;;;;;;;1.64;100.00;97537.84;5013324;28;20218;-48
2022/02/11 07:30:40;;;;;;;1.10;1.10;;;;;;;1.59;100.00;97556.50;5032703;28;20290;-51
2022/02/11 07:33:09;;;;;;;1.33;1.33;;;;;;;1.63;100.00;97561.50;5000854;28;20255;-48
2022/02/11 07:35:37;;;;;;;1.43;1.33;;;;;;;1.62;100.00;97572.91;5019702;28;20751;-46
2022/02/11 07:38:05;;;;;;;1.30;1.20;;;;;;;1.55;100.00;97583.81;5020730;28;20232;-53
2022/02/11 07:40:34;;;;;;;1.20;1.20;;;;;;;1.61;100.00;97582.50;5020215;28;20234;-49
2022/02/11 07:43:02;;;;;;;1.30;1.30;;;;;;;1.63;100.00;97588.44;5036054;28;20230;-51
2022/02/11 07:45:34;;;;;;;1.20;1.10;;;;;;;1.55;100.00;97596.03;5016204;28;20221;-52
2022/02/11 07:48:03;;;;;;;1.10;1.10;;;;;;;1.63;100.00;97609.34;5001341;28;20215;-49
2022/02/11 07:50:32;;;;;;;1.23;1.13;;;;;;;1.53;100.00;97613.59;5013094;28;20207;-51
2022/02/11 07:53:00;;;;;;;1.10;1.10;;;;;;;1.55;100.00;97630.81;5017669;28;20234;-49
2022/02/11 07:55:28;;;;;;;1.33;1.33;;;;;;;1.57;100.00;97638.53;4999594;28;20206;-53
2022/02/11 07:57:56;;;;;;;1.47;1.40;;;;;;;1.64;100.00;97644.13;5035311;28;20319;-50
2022/02/11 08:00:27;;;;;;;1.60;1.47;;;;;;;1.61;100.00;97662.66;5013793;28;20233;-47
2022/02/11 08:02:57;;;;;;;1.57;1.57;;;;;;;1.63;100.00;97668.59;5030661;28;20219;-49
2022/02/11 08:05:26;;;;;;;1.20;1.20;;;;;;;1.56;100.00;97668.22;4996002;28;20301;-53
2022/02/11 08:07:55;;;;;;;1.67;1.57;;;;;;;1.76;100.00;97673.72;5033570;28;20283;-49
2022/02/11 08:10:23;;;;;;;1.30;1.30;;;;;;;1.70;100.00;97668.00;4980268;28;21900;-47
2022/02/11 08:12:51;;;;;;;1.67;1.57;;;;;;;1.73;100.00;97675.63;5026174;28;20224;-50
2022/02/11 08:15:19;;;;;;;1.40;1.40;;;;;;;1.64;100.00;97686.75;5014114;28;21116;-51
2022/02/11 08:17:47;;;;;;;1.57;1.57;;;;;;;1.67;100.00;97702.19;5029905;28;20200;-47
2022/02/11 08:20:16;;;;;;;1.33;1.33;;;;;;;1.69;100.00;97708.13;5002504;28;20199;-48
2022/02/11 08:22:44;;;;;;;1.80;1.73;;;;;;;1.75;100.00;97719.91;5029888;28;20232;-49
2022/02/11 08:25:12;;;;;;;1.40;1.40;;;;;;;1.80;100.00;97723.00;4975398;28;21045;-48
2022/02/11 08:27:44;;;;;;;2.73;2.30;;;;;;;1.77;100.00;97735.50;5016570;28;20215;-53
2022/02/11 08:30:14;;;;;;;2.13;1.90;;;;;;;1.81;100.00;97739.53;5012387;28;20209;-50
2022/02/11 08:32:42;;;;;;;2.20;2.10;;;;;;;1.75;100.00;97735.59;5014426;28;20312;-51
2022/02/11 08:35:10;;;;;;;1.43;1.40;;;;;;;1.85;100.00;97752.22;5002112;28;20713;-47
2022/02/11 08:37:40;;;;;;;1.70;1.60;;;;;;;1.94;100.00;97760.34;5028362;28;20591;-50
2022/02/11 08:40:09;;;;;;;2.93;2.00;;;;;;;1.80;100.00;97772.66;5029278;28;20231;-52
2022/02/11 08:42:37;;;;;;;2.47;1.80;;;;;;;1.66;100.00;97763.22;4978682;28;20227;-53
2022/02/11 08:45:07;;;;;;;1.37;1.37;;;;;;;1.71;100.00;97783.78;5022950;28;20210;-53
2022/02/11 08:47:36;;;;;;;2.10;1.87;;;;;;;1.63;100.00;97792.19;5014312;28;20225;-50
2022/02/11 08:50:05;;;;;;;1.73;1.63;;;;;;;1.62;100.00;97792.31;4993700;28;20579;-52
2022/02/11 08:52:33;;;;;;;1.90;1.80;;;;;;;1.66;100.00;97797.19;5027001;28;20223;-51
2022/02/11 08:55:02;;;;;;;1.70;1.60;;;;;;;1.53;100.00;97805.09;5029066;28;20207;-51
2022/02/11 08:57:35;;;;;;;1.20;1.20;;;;;;;1.48;100.00;97812.41;4997926;28;20329;-49
2022/02/11 09:00:04;;;;;;;2.83;2.73;;;;;;;1.69;100.00;97825.69;5011183;28;20211;-49
2022/02/11 09:02:31;;;;;;;1.23;1.23;;;;;;;1.46;100.00;97829.16;5018058;28;20235;-50
2022/02/11 09:05:01;;;;;;;2.27;1.93;;;;;;;1.30;100.00;97835.47;5027951;28;20199;-46
2022/02/11 09:07:29;;;;;;;3.30;2.13;;;;;;;1.26;100.00;97836.63;5004146;28;20211;-49
2022/02/11 09:09:57;;;;;;;1.83;1.73;;;;;;;1.41;100.00;97848.59;5026865;28;20833;-50
2022/02/11 09:12:27;;;;;;;2.40;2.20;;;;;;;1.39;100.00;97852.25;5027611;28;20219;-47
2022/02/11 09:14:55;;;;;;;1.77;1.67;;;;;;;1.27;100.00;97862.63;4973212;28;20692;-46
2022/02/11 09:17:23;;;;;;;2.00;1.50;;;;;;;1.03;100.00;97857.38;5015677;28;20204;-52
2022/02/11 09:19:52;;;;;;;2.73;2.13;;;;;;;1.10;100.00;97865.59;5023417;28;20241;-50
2022/02/11 09:22:20;;;;;;;1.60;1.50;;;;;;;1.24;100.00;97870.69;4999606;28;20227;-48
2022/02/11 09:24:48;;;;;;;1.80;1.70;;;;;;;1.31;100.00;97881.50;5022550;28;20226;-47
2022/02/11 09:27:17;;;;;;;1.87;1.73;;;;;;;1.46;100.00;97887.44;5030212;28;20203;-47
2022/02/11 09:29:46;;;;;;;2.20;2.07;;;;;;;1.58;100.00;97885.72;4987341;28;20699;-52
2022/02/11 09:32:15;;;;;;;2.10;2.00;;;;;;;1.50;100.00;97901.94;5007516;28;20266;-46
2022/02/11 09:34:43;;;;;;;2.10;2.00;;;;;;;1.49;100.00;97902.06;5025212;28;20539;-47
2022/02/11 09:37:11;;;;;;;2.33;2.23;;;;;;;1.63;100.00;97908.91;5022580;28;20200;-49
2022/02/11 09:39:39;;;;;;;3.47;2.70;;;;;;;1.72;100.00;97909.09;5000721;28;20231;-46
2022/02/11 09:42:10;;;;;;;2.60;2.40;;;;;;;1.76;100.00;97925.38;5024970;28;20326;-48
2022/02/11 09:44:39;;;;;;;1.67;1.67;;;;;;;1.76;100.00;97924.56;4988901;28;20728;-49
2022/02/11 09:47:09;;;;;;;2.80;2.50;;;;;;;1.90;100.00;97939.25;5009684;28;20226;-51
2022/02/11 09:49:35;;;;;;;2.53;2.37;;;;;;;1.92;100.00;97937.34;5019269;28;20810;-48
2022/02/11 09:52:03;;;;;;;2.63;2.03;;;;;;;1.59;100.00;97943.09;5024670;28;20771;-46
2022/02/11 09:54:32;;;;;;;4.30;2.40;;;;;;;1.69;100.00;97947.66;4997161;28;20443;-47
2022/02/11 09:57:00;;;;;;;2.53;2.20;;;;;;;1.83;100.00;97957.13;5026578;28;20218;-47
2022/02/11 09:59:30;;;;;;;3.03;2.50;;;;;;;2.01;100.00;97950.56;4990486;28;20581;-47
2022/02/11 10:01:59;;;;;;;2.60;2.40;;;;;;;2.26;100.00;97954.03;5014807;28;20231;-50
2022/02/11 10:04:27;;;;;;;2.63;2.43;;;;;;;1.96;100.00;97955.31;5011721;28;20392;-50
2022/02/11 10:06:58;;;;;;;2.93;2.00;;;;;;;1.87;100.00;97959.41;5022072;28;20204;-48
2022/02/11 10:09:28;;;;;;;3.30;2.20;;;;;;;1.80;100.00;97952.13;4998708;28;23293;-48
2022/02/11 10:11:56;;;;;;;2.43;2.23;;;;;;;2.15;100.00;97960.03;5026770;28;20297;-47
2022/02/11 10:14:26;;;;;;;2.20;2.10;;;;;;;2.46;100.00;97955.19;5022081;28;20469;-53
2022/02/11 10:16:57;;;;;;;2.73;2.53;;;;;;;2.60;100.00;97956.78;4987473;28;20700;-48
2022/02/11 10:19:43;;;;;;;2.30;2.20;;;;;;;2.67;100.00;97961.53;5011061;28;20207;-48
2022/02/11 10:22:13;;;;;;;5.00;2.70;;;;;;;2.37;100.00;97957.63;5024485;28;20231;-45
2022/02/11 10:24:42;;;;;;;2.90;2.23;;;;;;;2.32;100.00;97973.69;4995325;28;20219;-46
2022/02/11 10:27:25;;;;;;;2.13;2.03;;;;;;;2.50;100.00;97974.09;5024079;28;20288;-45
2022/02/11 10:29:57;;;;;;;2.37;2.23;;;;;;;2.50;100.00;97961.03;5029400;28;20679;-49
2022/02/11 10:32:44;;;;;;;4.50;2.57;;;;;;;2.63;100.00;97974.00;4991878;28;20309;-47
2022/02/11 10:35:14;;;;;;;2.13;1.90;;;;;;;2.66;100.00;97979.03;5009654;28;20354;-48
2022/02/11 10:38:07;;;;;;;1.90;1.80;;;;;;;2.50;100.00;97989.81;5026558;28;20222;-48
2022/02/11 10:40:38;;;;;;;2.93;2.40;;;;;;;2.64;100.00;97993.16;4998127;28;22187;-46
2022/02/11 10:43:18;;;;;;;4.70;2.00;;;;;;;2.97;100.00;97983.75;5025512;28;20246;-47
2022/02/11 10:45:47;;;;;;;4.57;2.40;;;;;;;3.28;100.00;97986.66;5025394;28;20706;-53
2022/02/11 10:48:17;;;;;;;2.53;2.33;;;;;;;3.32;100.00;97998.56;4990248;28;21157;-49
2022/02/11 10:50:55;;;;;;;2.47;2.30;;;;;;;3.48;100.00;97992.97;5018021;28;20235;-49
2022/02/11 10:53:25;;;;;;;2.17;2.07;;;;;;;3.27;100.00;97990.22;5021331;28;20229;-48
2022/02/11 10:55:54;;;;;;;4.00;2.33;;;;;;;3.26;100.00;97999.84;5028597;28;20299;-53
2022/02/11 10:58:23;;;;;;;2.40;2.20;;;;;;;3.57;100.00;97984.38;4993313;28;20439;-47
2022/02/11 11:00:51;;;;;;;2.60;2.40;;;;;;;3.80;100.00;97986.16;5028338;28;20207;-48
2022/02/11 11:03:19;;;;;;;2.90;2.67;;;;;;;3.88;100.00;97978.50;4992892;28;20303;-51
2022/02/11 11:05:50;;;;;;;3.43;3.13;;;;;;;3.90;100.00;97980.06;5018554;28;20294;-49
2022/02/11 11:08:18;;;;;;;5.73;2.40;;;;;;;3.91;100.00;97976.50;5027606;28;20662;-49
2022/02/11 11:10:47;;;;;;;2.43;2.33;;;;;;;4.11;100.00;97971.41;5030961;28;20620;-47
2022/02/11 11:13:16;;;;;;;2.20;1.93;;;;;;;4.12;100.00;97980.94;4999217;28;20302;-47
2022/02/11 11:15:46;;;;;;;2.30;1.90;;;;;;;3.67;100.00;97989.75;5028443;28;20946;-48
2022/02/11 11:18:18;;;;;;;2.93;2.00;;;;;;;3.79;100.00;97974.00;4998126;28;20667;-49
2022/02/11 11:20:56;;;;;;;2.53;2.33;;;;;;;3.54;100.00;97989.88;5025434;28;20230;-49
2022/02/11 11:23:26;;;;;;;4.23;2.10;;;;;;;3.31;100.00;97994.28;5012615;28;20227;-50
2022/02/11 11:26:02;;;;;;;2.73;2.53;;;;;;;3.34;100.00;97994.03;5028301;28;20480;-47
2022/02/11 11:28:47;;;;;;;3.03;1.90;;;;;;;3.49;100.00;97989.41;5001216;28;20214;-47
2022/02/11 11:31:18;;;;;;;2.17;1.90;;;;;;;3.88;100.00;97989.00;5029150;28;20199;-47
2022/02/11 11:33:46;;;;;;;3.07;1.97;;;;;;;3.94;100.00;97988.50;4987517;28;20649;-49
2022/02/11 11:36:17;;;;;;;2.57;2.23;;;;;;;4.16;100.00;97986.81;5031231;28;20302;-48
2022/02/11 11:38:48;;;;;;;3.03;2.03;;;;;;;3.96;100.00;97983.97;5010973;28;20316;-52
2022/02/11 11:41:21;;;;;;;3.73;3.50;;;;;;;4.01;100.00;97987.09;5034900;28;20290;-47
2022/02/11 11:43:51;;;;;;;3.03;2.57;;;;;;;3.99;100.00;97990.78;5000194;28;20409;-48
2022/02/11 11:46:40;;;;;;;3.43;2.23;;;;;;;3.86;100.00;97993.53;5034461;28;20207;-51
2022/02/11 11:49:13;;;;;;;3.83;2.10;;;;;;;3.62;100.00;98000.59;5031167;28;20220;-49
2022/02/11 11:52:05;;;;;;;1.97;1.80;;;;;;;3.56;100.00;98000.22;4978555;28;20250;-49
2022/02/11 11:54:34;;;;;;;3.03;2.10;;;;;;;3.58;100.00;98014.88;5030984;28;20237;-46
2022/02/11 11:57:09;;;;;;;3.57;2.40;;;;;;;3.48;100.00;98009.50;5026848;28;20211;-51
2022/02/11 11:59:38;;;;;;;2.17;2.00;;;;;;;3.44;100.00;98013.31;5000170;28;20219;-48
2022/02/11 12:02:08;;;;;;;5.47;3.87;;;;;;;3.59;100.00;98024.41;5036557;28;20223;-47
2022/02/11 12:04:49;;;;;;;2.47;2.20;;;;;;;3.78;100.00;98014.28;5011067;28;20315;-52
2022/02/11 12:07:20;;;;;;;2.00;1.60;;;;;;;3.60;100.00;98017.41;5018670;28;20743;-46
2022/02/11 12:09:50;;;;;;;1.93;1.83;;;;;;;3.53;100.00;98018.78;5025948;28;20684;-46
2022/02/11 12:12:19;;;;;;;2.27;2.07;;;;;;;3.66;100.00;98027.41;5029835;28;20318;-49
2022/02/11 12:14:50;;;;;;;4.03;1.80;;;;;;;3.89;100.00;98024.75;5001606;28;20215;-53
2022/02/11 12:17:20;;;;;;;3.03;2.13;;;;;;;3.74;100.00;98027.63;5030127;28;20785;-53
2022/02/11 12:19:48;;;;;;;2.53;2.23;;;;;;;3.72;100.00;98028.69;5025011;28;20207;-50
2022/02/11 12:22:21;;;;;;;3.10;1.83;;;;;;;3.71;100.00;98033.09;4986859;28;20989;-48
2022/02/11 12:27:37;;;;;;;3.73;2.13;;;;;;;3.40;100.00;98026.75;5023553;28;20208;-54
2022/02/11 12:30:07;;;;;;;3.63;2.47;;;;;;;3.56;100.00;98022.03;5002507;28;20211;-51
2022/02/11 12:32:40;;;;;;;2.00;1.90;;;;;;;3.76;100.00;98020.47;5027644;28;20235;-49
2022/02/11 12:35:10;;;;;;;3.23;2.93;;;;;;;3.84;100.00;98021.66;5027703;28;20212;-51
2022/02/11 12:37:41;;;;;;;2.47;2.30;;;;;;;4.08;100.00;98024.13;4984418;28;20212;-49
2022/02/11 12:40:12;;;;;;;2.37;1.83;;;;;;;4.05;100.00;98024.38;5029638;28;20778;-53
2022/02/11 12:42:42;;;;;;;2.80;1.87;;;;;;;4.01;100.00;98020.31;5020513;28;20223;-51
2022/02/11 12:45:11;;;;;;;3.93;2.17;;;;;;;4.19;100.00;98020.66;5003290;28;20691;-45
2022/02/11 12:47:40;;;;;;;2.13;1.93;;;;;;;4.49;100.00;98029.63;5025319;28;20208;-49
2022/02/11 12:50:11;;;;;;;2.10;1.90;;;;;;;4.44;100.00;98037.06;5030132;28;20208;-48
2022/02/11 12:52:41;;;;;;;2.07;1.97;;;;;;;4.42;100.00;98007.47;4982424;28;20838;-51
2022/02/11 12:55:12;;;;;;;2.33;2.00;;;;;;;4.68;100.00;98025.50;5026321;28;20219;-50
2022/02/11 12:57:43;;;;;;;1.97;1.87;;;;;;;4.78;100.00;98015.94;5027592;28;20220;-51
2022/02/11 13:00:15;;;;;;;2.17;1.97;;;;;;;4.30;100.00;98020.63;5011158;28;20222;-52
2022/02/11 13:02:44;;;;;;;3.53;2.17;;;;;;;4.57;100.00;98019.34;4997423;28;20227;-51
2022/02/11 13:05:15;;;;;;;2.33;2.13;;;;;;;4.45;100.00;98028.22;5026440;28;20220;-52
2022/02/11 13:07:46;;;;;;;2.07;1.83;;;;;;;4.17;100.00;98014.69;4991109;28;20215;-51
2022/02/11 13:10:19;;;;;;;2.87;1.93;;;;;;;3.86;100.00;98023.22;5011726;28;20203;-52
2022/02/11 13:12:48;;;;;;;3.00;2.30;;;;;;;3.75;100.00;98020.59;4997058;28;20243;-46
2022/02/11 13:15:17;;;;;;;1.97;1.87;;;;;;;3.67;100.00;98012.50;4972768;28;20207;-53
2022/02/11 13:17:46;;;;;;;2.03;1.83;;;;;;;3.42;100.00;98010.00;4960713;28;20456;-52
2022/02/11 13:20:18;;;;;;;2.08;1.88;;;;;;;3.35;100.00;98010.56;4966918;28;20446;-48
2022/02/11 13:22:49;;;;;;;2.60;2.40;;;;;;;3.91;100.00;98023.69;4946062;28;20921;-52
2022/02/11 13:25:18;;;;;;;2.90;2.10;;;;;;;6.14;100.00;98018.53;4971252;28;20465;-49
2022/02/11 13:27:51;;;;;;;1.97;1.83;;;;;;;7.04;86.41;98014.00;4978096;28;20456;-49
2022/02/11 13:30:25;;;;;;;3.23;1.53;;;;;;;7.36;86.52;98017.25;4982978;28;20227;-49
2022/02/11 13:32:54;;;;;;;2.17;1.83;;;;;;;7.02;82.49;98012.50;4964090;28;20597;-50
2022/02/11 13:35:22;;;;;;;3.27;1.50;;;;;;;5.84;94.86;98030.72;4966676;28;20224;-51
2022/02/11 13:37:53;;;;;;;2.23;1.43;;;;;;;5.09;100.00;98031.75;4951761;28;20219;-51
2022/02/11 13:40:23;;;;;;;1.60;1.50;;;;;;;4.40;100.00;98017.28;4965834;28;20236;-50
2022/02/11 13:43:02;;;;;;;3.83;1.67;;;;;;;4.37;100.00;98033.25;4982686;28;20575;-49
2022/02/11 13:45:31;;;;;;;2.30;2.10;;;;;;;5.09;100.00;98030.94;4983663;28;20455;-49
2022/02/11 13:48:06;;;;;;;1.67;1.47;;;;;;;4.87;100.00;98028.28;4961757;28;20213;-49
2022/02/11 13:50:57;;;;;;;2.40;1.73;;;;;;;5.04;100.00;98031.28;4964870;28;20213;-48
2022/02/11 13:53:36;;;;;;;2.50;2.10;;;;;;;4.59;100.00;98034.97;4949509;28;20224;-47
2022/02/11 13:56:06;;;;;;;1.70;1.60;;;;;;;4.99;97.95;98038.72;4973215;28;20212;-45
2022/02/11 13:58:34;;;;;;;1.57;1.50;;;;;;;4.78;100.00;98036.94;4979520;28;20223;-48
2022/02/11 14:01:04;;;;;;;1.83;1.73;;;;;;;4.66;100.00;98041.38;4981481;28;20201;-46
2022/02/11 14:03:32;;;;;;;1.70;1.60;;;;;;;4.22;100.00;98046.63;4957317;28;20861;-46
2022/02/11 14:06:04;;;;;;;2.30;1.80;;;;;;;3.89;100.00;98049.19;4984955;28;20709;-47
2022/02/11 14:08:44;;;;;;;2.00;1.90;;;;;;;3.60;100.00;98048.84;4982436;28;20212;-47
2022/02/11 14:11:13;;;;;;;2.40;1.80;;;;;;;3.52;100.00;98053.81;4948579;28;20213;-51
2022/02/11 14:13:41;;;;;;;1.87;1.63;;;;;;;3.46;100.00;98050.72;4977046;28;20205;-46
2022/02/11 14:16:09;;;;;;;1.83;1.73;;;;;;;3.58;100.00;98051.56;4981923;28;20433;-48
2022/02/11 14:18:39;;;;;;;1.63;1.63;;;;;;;3.91;100.00;98055.16;4978344;28;20201;-46
2022/02/11 14:21:07;;;;;;;2.63;2.27;;;;;;;3.88;100.00;98057.16;4956290;28;20209;-46
2022/02/11 14:23:35;;;;;;;2.57;1.53;;;;;;;4.03;100.00;98063.84;4984128;28;20209;-49
2022/02/11 14:26:04;;;;;;;2.67;1.97;;;;;;;4.01;100.00;98068.38;4952549;28;20217;-47
2022/02/11 14:28:34;;;;;;;1.67;1.63;;;;;;;3.86;100.00;98070.41;4967420;28;20235;-47
2022/02/11 14:31:04;;;;;;;1.83;1.73;;;;;;;4.05;100.00;98069.81;4983999;28;20200;-47
2022/02/11 14:33:32;;;;;;;1.83;1.73;;;;;;;4.52;100.00;98084.50;4981048;28;20220;-53
2022/02/11 14:36:00;;;;;;;3.53;1.67;;;;;;;4.52;100.00;98105.50;4943965;28;20898;-44
2022/02/11 14:38:29;;;;;;;1.73;1.63;;;;;;;3.97;100.00;98090.53;4982773;28;20321;-50
2022/02/11 14:43:43;;;;;;;1.67;1.57;;;;;;;3.52;100.00;98095.75;4971817;28;20729;-51
2022/02/11 14:46:12;;;;;;;1.80;1.70;;;;;;;3.49;100.00;98083.72;4980538;28;20232;-49
2022/02/11 14:48:40;;;;;;;2.17;2.03;;;;;;;3.57;100.00;98101.47;4983424;28;20537;-47
2022/02/11 14:51:09;;;;;;;2.00;1.67;;;;;;;3.40;100.00;98100.97;4960872;28;20296;-50
2022/02/11 14:53:37;;;;;;;1.73;1.63;;;;;;;3.45;100.00;98104.06;4982981;28;20647;-51
2022/02/11 14:56:07;;;;;;;1.93;1.57;;;;;;;3.44;100.00;98104.22;4976874;28;20943;-50
2022/02/11 14:58:35;;;;;;;2.10;2.00;;;;;;;3.45;100.00;98104.06;4945900;28;20214;-48
2022/02/11 15:01:09;;;;;;;3.43;2.03;;;;;;;3.44;100.00;98099.78;4978977;28;20193;-47
2022/02/11 15:03:37;;;;;;;2.10;1.87;;;;;;;3.38;100.00;98099.41;4985025;28;20209;-51
2022/02/11 15:06:07;;;;;;;3.80;2.70;;;;;;;3.60;100.00;98106.50;4959949;28;21183;-48
2022/02/11 15:08:35;;;;;;;2.17;2.07;;;;;;;3.62;100.00;98107.22;4983574;28;20928;-50